Wetterdaten: Woche 06.02.17 - 12.02.17 (KW6)
Datum Zeit Temp. A. Feuchte A. Luftdruck Regen Wind Richtung Taupunkt Windchill Windben
06.02.2017 00:00 0,2 C 97 % 1006,4 hPa 0,5 l/m 0,0 km/h (0 Bft) O-NO -0,2 C 0,2 C 0,0 km/h (0 Bft)
06.02.2017 01:00 0,1 C 97 % 1007,1 hPa 0,5 l/m 0,0 km/h (0 Bft) O-NO -0,3 C 0,1 C 0,0 km/h (0 Bft)
06.02.2017 02:00 0,1 C 97 % 1007,8 hPa 0,0 l/m 0,0 km/h (0 Bft) O-NO -0,3 C 0,1 C 0,0 km/h (0 Bft)
06.02.2017 03:00 0,1 C 97 % 1008,9 hPa 0,0 l/m 0,0 km/h (0 Bft) O-NO -0,3 C 0,1 C 0,0 km/h (0 Bft)
06.02.2017 04:00 0,1 C 98 % 1009,9 hPa 0,0 l/m 0,0 km/h (0 Bft) O-NO -0,2 C 0,1 C 0,0 km/h (0 Bft)
06.02.2017 05:00 0,1 C 98 % 1011,3 hPa 0,0 l/m 0,0 km/h (0 Bft) O-NO -0,2 C 0,1 C 0,0 km/h (0 Bft)
06.02.2017 06:00 0,2 C 98 % 1012,1 hPa 0,0 l/m 0,0 km/h (0 Bft) O-NO -0,1 C 0,2 C 0,0 km/h (0 Bft)
06.02.2017 07:00 -0,0 C 98 % 1012,9 hPa 0,0 l/m 0,0 km/h (0 Bft) O-NO -0,3 C -0,0 C 0,0 km/h (0 Bft)
06.02.2017 08:00 0,1 C 98 % 1013,9 hPa 0,0 l/m 0,0 km/h (0 Bft) O-NO -0,2 C 0,1 C 0,0 km/h (0 Bft)
06.02.2017 09:00 1,0 C 98 % 1014,7 hPa 1,5 l/m 0,1 km/h (0 Bft) O-NO 0,8 C 1,0 C 0,7 km/h (0 Bft)
06.02.2017 10:00 3,2 C 97 % 1015,4 hPa 2,5 l/m 0,7 km/h (0 Bft) O-NO 2,7 C 3,2 C 2,3 km/h (1 Bft)
06.02.2017 11:00 4,8 C 91 % 1016,1 hPa 0,3 l/m 1,7 km/h (1 Bft) O-NO 3,5 C 4,8 C 4,3 km/h (1 Bft)
06.02.2017 12:00 5,5 C 84 % 1016,3 hPa 0,0 l/m 2,8 km/h (1 Bft) W-NW 2,9 C 5,5 C 5,9 km/h (2 Bft)
06.02.2017 13:00 6,5 C 77 % 1016,4 hPa 0,0 l/m 2,3 km/h (1 Bft) S-SW 2,8 C 6,5 C 6,0 km/h (2 Bft)
06.02.2017 14:00 6,6 C 77 % 1016,5 hPa 0,0 l/m 1,9 km/h (1 Bft) W-NW 2,9 C 6,6 C 5,1 km/h (1 Bft)
06.02.2017 15:00 5,3 C 84 % 1016,9 hPa 0,0 l/m 0,7 km/h (0 Bft) W-NW 2,9 C 5,3 C 2,5 km/h (1 Bft)
06.02.2017 16:00 5,3 C 85 % 1017,5 hPa 0,0 l/m 2,8 km/h (1 Bft) O-NO 3,1 C 5,3 C 6,8 km/h (2 Bft)
06.02.2017 17:00 3,9 C 88 % 1018,3 hPa 0,0 l/m 1,9 km/h (1 Bft) NW 2,1 C 3,9 C 4,5 km/h (1 Bft)
06.02.2017 18:00 3,3 C 89 % 1018,8 hPa 0,0 l/m 0,2 km/h (0 Bft) NW 1,6 C 3,3 C 1,5 km/h (1 Bft)
06.02.2017 19:00 2,6 C 93 % 1019,2 hPa 0,0 l/m 0,2 km/h (0 Bft) W-NW 1,6 C 2,6 C 1,1 km/h (0 Bft)
06.02.2017 20:00 1,9 C 94 % 1019,3 hPa 0,0 l/m 0,3 km/h (0 Bft) W-NW 1,1 C 1,9 C 1,1 km/h (0 Bft)
06.02.2017 21:00 1,8 C 96 % 1019,4 hPa 0,0 l/m 0,4 km/h (0 Bft) N-NO 1,1 C 1,8 C 1,9 km/h (1 Bft)
06.02.2017 22:00 1,7 C 96 % 1019,2 hPa 0,0 l/m 0,1 km/h (0 Bft) N-NW 1,1 C 1,7 C 0,8 km/h (0 Bft)
06.02.2017 23:00 1,4 C 97 % 1019,0 hPa 0,0 l/m 0,4 km/h (0 Bft) N-NW 1,0 C 1,4 C 1,6 km/h (1 Bft)
07.02.2017 00:00 1,3 C 97 % 1019,1 hPa 0,0 l/m 0,3 km/h (0 Bft) O-NO 0,8 C 1,3 C 1,5 km/h (1 Bft)
07.02.2017 01:00 1,1 C 97 % 1019,0 hPa 0,0 l/m 0,4 km/h (0 Bft) O-NO 0,6 C 1,1 C 2,0 km/h (1 Bft)
07.02.2017 02:00 0,9 C 97 % 1018,8 hPa 0,0 l/m 0,6 km/h (0 Bft) O-NO 0,5 C 0,9 C 2,7 km/h (1 Bft)
07.02.2017 03:00 0,8 C 96 % 1018,5 hPa 0,0 l/m 1,2 km/h (1 Bft) NO 0,2 C 0,8 C 4,1 km/h (1 Bft)
07.02.2017 04:00 0,6 C 96 % 1018,3 hPa 0,0 l/m 0,6 km/h (0 Bft) O 0,0 C 0,6 C 2,3 km/h (1 Bft)
07.02.2017 05:00 0,3 C 96 % 1018,1 hPa 0,0 l/m 0,6 km/h (0 Bft) O -0,3 C 0,3 C 1,8 km/h (1 Bft)
07.02.2017 06:00 0,0 C 96 % 1018,2 hPa 0,0 l/m 0,5 km/h (0 Bft) O -0,5 C 0,0 C 1,9 km/h (1 Bft)
07.02.2017 07:00 -0,4 C 96 % 1018,0 hPa 0,0 l/m 0,2 km/h (0 Bft) O-NO -1,0 C -0,4 C 1,5 km/h (1 Bft)
07.02.2017 08:00 -0,4 C 97 % 1017,8 hPa 0,0 l/m 0,1 km/h (0 Bft) O-NO -0,8 C -0,4 C 1,2 km/h (1 Bft)
07.02.2017 09:00 -0,1 C 96 % 1017,6 hPa 0,0 l/m 0,8 km/h (0 Bft) O-NO -0,7 C -0,1 C 2,7 km/h (1 Bft)
07.02.2017 10:00 0,4 C 95 % 1017,7 hPa 0,0 l/m 1,1 km/h (0 Bft) W-NW -0,4 C 0,4 C 3,9 km/h (1 Bft)
07.02.2017 11:00 1,3 C 93 % 1017,4 hPa 0,0 l/m 1,3 km/h (1 Bft) NW 0,2 C 1,3 C 2,7 km/h (1 Bft)
07.02.2017 12:00 1,9 C 91 % 1016,9 hPa 0,0 l/m 1,9 km/h (1 Bft) NO 0,6 C 1,9 C 3,7 km/h (1 Bft)
07.02.2017 13:00 2,4 C 90 % 1016,7 hPa 0,0 l/m 2,0 km/h (1 Bft) NO 0,9 C 2,4 C 3,5 km/h (1 Bft)
07.02.2017 14:00 2,5 C 89 % 1016,2 hPa 0,0 l/m 1,8 km/h (1 Bft) N 1,0 C 2,5 C 3,6 km/h (1 Bft)
07.02.2017 15:00 2,7 C 89 % 1016,3 hPa 0,0 l/m 1,3 km/h (1 Bft) NW 1,1 C 2,7 C 3,6 km/h (1 Bft)
07.02.2017 16:00 2,4 C 91 % 1016,4 hPa 0,0 l/m 1,3 km/h (1 Bft) O-NO 1,1 C 2,4 C 3,9 km/h (1 Bft)
07.02.2017 17:00 1,8 C 93 % 1016,8 hPa 0,3 l/m 0,3 km/h (0 Bft) W-NW 0,8 C 1,8 C 1,9 km/h (1 Bft)
07.02.2017 18:00 1,6 C 94 % 1017,1 hPa 0,0 l/m 0,0 km/h (0 Bft) W-NW 0,7 C 1,6 C 0,3 km/h (0 Bft)
07.02.2017 19:00 1,2 C 96 % 1017,2 hPa 0,0 l/m 0,0 km/h (0 Bft) W-NW 0,6 C 1,2 C 0,5 km/h (0 Bft)
07.02.2017 20:00 1,1 C 96 % 1017,1 hPa 0,0 l/m 0,0 km/h (0 Bft) W-NW 0,6 C 1,1 C 0,4 km/h (0 Bft)
07.02.2017 21:00 1,1 C 96 % 1017,0 hPa 0,0 l/m 0,0 km/h (0 Bft) W-NW 0,6 C 1,1 C 0,5 km/h (0 Bft)
07.02.2017 22:00 1,0 C 97 % 1017,1 hPa 0,3 l/m 0,0 km/h (0 Bft) W-NW 0,5 C 1,0 C 0,1 km/h (0 Bft)
07.02.2017 23:00 0,9 C 97 % 1017,1 hPa 0,3 l/m 0,2 km/h (0 Bft) W-NW 0,5 C 0,9 C 1,1 km/h (0 Bft)
08.02.2017 00:00 0,9 C 97 % 1017,3 hPa 0,0 l/m 0,0 km/h (0 Bft) N-NW 0,4 C 0,9 C 0,6 km/h (0 Bft)
08.02.2017 01:00 0,7 C 97 % 1017,3 hPa 0,0 l/m 0,1 km/h (0 Bft) S 0,3 C 0,7 C 0,5 km/h (0 Bft)
08.02.2017 02:00 0,7 C 97 % 1017,4 hPa 0,0 l/m 0,0 km/h (0 Bft) S 0,3 C 0,7 C 0,3 km/h (0 Bft)
08.02.2017 03:00 0,4 C 97 % 1017,2 hPa 0,0 l/m 0,0 km/h (0 Bft) S -0,0 C 0,4 C 0,4 km/h (0 Bft)
08.02.2017 04:00 -0,1 C 97 % 1017,2 hPa 0,0 l/m 0,0 km/h (0 Bft) S -0,5 C -0,1 C 0,1 km/h (0 Bft)
08.02.2017 05:00 -0,2 C 97 % 1017,7 hPa 0,0 l/m 0,0 km/h (0 Bft) S -0,6 C -0,2 C 0,6 km/h (0 Bft)
08.02.2017 06:00 -0,2 C 98 % 1018,2 hPa 0,0 l/m 0,1 km/h (0 Bft) S -0,5 C -0,2 C 0,8 km/h (0 Bft)
08.02.2017 07:00 -0,1 C 98 % 1018,9 hPa 0,0 l/m 0,0 km/h (0 Bft) S -0,3 C -0,1 C 0,7 km/h (0 Bft)
08.02.2017 08:00 0,3 C 98 % 1019,4 hPa 0,0 l/m 0,7 km/h (0 Bft) W-SW 0,0 C 0,3 C 2,8 km/h (1 Bft)
08.02.2017 09:00 1,0 C 98 % 1019,6 hPa 0,0 l/m 1,1 km/h (1 Bft) W-NW 0,6 C 1,0 C 3,6 km/h (1 Bft)
08.02.2017 10:00 1,4 C 96 % 1019,9 hPa 0,0 l/m 1,5 km/h (1 Bft) SW 0,8 C 1,4 C 5,3 km/h (1 Bft)
08.02.2017 11:00 1,8 C 95 % 1020,4 hPa 0,0 l/m 1,0 km/h (0 Bft) W 1,1 C 1,8 C 3,4 km/h (1 Bft)
08.02.2017 12:00 2,5 C 93 % 1020,6 hPa 0,0 l/m 1,9 km/h (1 Bft) W 1,5 C 2,5 C 4,6 km/h (1 Bft)
08.02.2017 13:00 3,3 C 89 % 1020,7 hPa 0,0 l/m 1,4 km/h (1 Bft) S-SO 1,6 C 3,3 C 4,8 km/h (1 Bft)
08.02.2017 14:00 3,5 C 86 % 1020,9 hPa 0,0 l/m 1,3 km/h (1 Bft) NW 1,4 C 3,5 C 4,1 km/h (1 Bft)
08.02.2017 15:00 4,1 C 83 % 1021,0 hPa 0,0 l/m 1,4 km/h (1 Bft) S-SW 1,4 C 4,1 C 4,7 km/h (1 Bft)
08.02.2017 16:00 3,5 C 86 % 1021,4 hPa 0,0 l/m 2,5 km/h (1 Bft) W 1,3 C 3,5 C 6,7 km/h (2 Bft)
08.02.2017 17:00 2,4 C 89 % 1022,2 hPa 0,0 l/m 1,4 km/h (1 Bft) W-NW 0,7 C 2,4 C 4,2 km/h (1 Bft)
08.02.2017 18:00 1,9 C 89 % 1022,8 hPa 0,0 l/m 1,0 km/h (0 Bft) NW 0,4 C 1,9 C 3,0 km/h (1 Bft)
08.02.2017 19:00 1,4 C 91 % 1023,5 hPa 0,0 l/m 0,9 km/h (0 Bft) NW -0,0 C 1,4 C 3,3 km/h (1 Bft)
08.02.2017 20:00 1,2 C 90 % 1023,8 hPa 0,0 l/m 1,2 km/h (1 Bft) SW -0,3 C 1,2 C 4,5 km/h (1 Bft)
08.02.2017 21:00 1,0 C 88 % 1024,0 hPa 0,0 l/m 1,8 km/h (1 Bft) W -0,7 C 1,0 C 5,1 km/h (1 Bft)
08.02.2017 22:00 0,6 C 87 % 1024,0 hPa 0,0 l/m 1,5 km/h (1 Bft) W-NW -1,3 C 0,6 C 5,1 km/h (1 Bft)
08.02.2017 23:00 -0,5 C 89 % 1024,2 hPa 0,0 l/m 0,5 km/h (0 Bft) SW -2,0 C -0,5 C 3,1 km/h (1 Bft)
09.02.2017 00:00 -1,2 C 91 % 1024,4 hPa 0,0 l/m 0,3 km/h (0 Bft) W-SW -2,5 C -1,2 C 1,8 km/h (1 Bft)
09.02.2017 01:00 -2,0 C 93 % 1024,4 hPa 0,0 l/m 0,1 km/h (0 Bft) W-SW -3,0 C -2,0 C 1,3 km/h (1 Bft)
09.02.2017 02:00 -2,3 C 92 % 1024,5 hPa 0,0 l/m 1,1 km/h (0 Bft) W-SW -3,4 C -2,3 C 3,9 km/h (1 Bft)
09.02.2017 03:00 -2,3 C 89 % 1024,3 hPa 0,0 l/m 1,0 km/h (0 Bft) S-SW -3,9 C -2,3 C 3,9 km/h (1 Bft)
09.02.2017 04:00 -2,8 C 90 % 1024,3 hPa 0,0 l/m 0,5 km/h (0 Bft) S -4,3 C -2,8 C 2,8 km/h (1 Bft)
09.02.2017 05:00 -3,2 C 90 % 1024,4 hPa 0,0 l/m 1,1 km/h (1 Bft) S-SW -4,6 C -3,2 C 4,0 km/h (1 Bft)
09.02.2017 06:00 -3,4 C 90 % 1024,2 hPa 0,0 l/m 0,9 km/h (0 Bft) S-SW -4,8 C -3,4 C 3,6 km/h (1 Bft)
09.02.2017 07:00 -3,5 C 89 % 1024,4 hPa 0,0 l/m 1,5 km/h (1 Bft) S-SW -5,1 C -3,5 C 4,7 km/h (1 Bft)
09.02.2017 08:00 -3,4 C 88 % 1024,4 hPa 0,0 l/m 2,2 km/h (1 Bft) W -5,0 C -3,4 C 6,8 km/h (2 Bft)
09.02.2017 09:00 -2,2 C 85 % 1024,0 hPa 0,0 l/m 3,6 km/h (1 Bft) S-SW -4,4 C -2,2 C 9,7 km/h (2 Bft)
09.02.2017 10:00 -2,0 C 83 % 1023,7 hPa 0,0 l/m 5,1 km/h (1 Bft) W -4,5 C -2,0 C 14,9 km/h (3 Bft)
09.02.2017 11:00 -2,4 C 85 % 1023,6 hPa 0,0 l/m 4,7 km/h (1 Bft) SW -4,6 C -2,5 C 12,6 km/h (2 Bft)
09.02.2017 12:00 -2,0 C 85 % 1023,2 hPa 0,0 l/m 3,0 km/h (1 Bft) W-NW -4,2 C -2,0 C 7,3 km/h (2 Bft)
09.02.2017 13:00 -1,7 C 84 % 1022,6 hPa 0,0 l/m 4,8 km/h (1 Bft) S-SW -4,0 C -1,8 C 13,6 km/h (3 Bft)
09.02.2017 14:00 -1,6 C 85 % 1022,3 hPa 0,0 l/m 3,1 km/h (1 Bft) NW -3,9 C -1,6 C 8,7 km/h (2 Bft)
09.02.2017 15:00 -1,4 C 85 % 1022,4 hPa 0,0 l/m 2,3 km/h (1 Bft) S-SW -3,7 C -1,4 C 7,0 km/h (2 Bft)
09.02.2017 16:00 -1,6 C 85 % 1022,0 hPa 0,0 l/m 4,1 km/h (1 Bft) S-SW -3,7 C -1,6 C 10,7 km/h (2 Bft)
09.02.2017 17:00 -1,8 C 86 % 1021,9 hPa 0,0 l/m 2,7 km/h (1 Bft) SW -3,8 C -1,8 C 6,5 km/h (2 Bft)
09.02.2017 18:00 -1,8 C 87 % 1022,1 hPa 0,0 l/m 2,4 km/h (1 Bft) S-SW -3,7 C -1,8 C 6,6 km/h (2 Bft)
09.02.2017 19:00 -1,8 C 86 % 1021,9 hPa 0,0 l/m 1,5 km/h (1 Bft) W -3,8 C -1,8 C 5,2 km/h (1 Bft)
09.02.2017 20:00 -1,8 C 86 % 1021,6 hPa 0,0 l/m 2,0 km/h (1 Bft) W -3,8 C -1,8 C 6,7 km/h (2 Bft)
09.02.2017 21:00 -1,9 C 87 % 1021,3 hPa 0,0 l/m 1,1 km/h (1 Bft) W -3,8 C -1,9 C 4,5 km/h (1 Bft)
09.02.2017 22:00 -2,0 C 87 % 1021,1 hPa 0,0 l/m 1,2 km/h (1 Bft) N-NW -3,9 C -2,0 C 4,0 km/h (1 Bft)
09.02.2017 23:00 -2,0 C 86 % 1021,0 hPa 0,0 l/m 1,2 km/h (1 Bft) W-SW -3,9 C -2,0 C 3,9 km/h (1 Bft)
10.02.2017 00:00 -2,0 C 86 % 1020,8 hPa 0,0 l/m 0,9 km/h (0 Bft) W-SW -3,9 C -2,0 C 3,0 km/h (1 Bft)
10.02.2017 01:00 -2,1 C 87 % 1020,4 hPa 0,0 l/m 1,2 km/h (1 Bft) W -3,9 C -2,1 C 4,1 km/h (1 Bft)
10.02.2017 02:00 -2,1 C 88 % 1020,3 hPa 0,0 l/m 1,1 km/h (0 Bft) W -3,9 C -2,1 C 4,0 km/h (1 Bft)
10.02.2017 03:00 -2,2 C 87 % 1020,0 hPa 0,0 l/m 0,9 km/h (0 Bft) W-NW -4,1 C -2,2 C 3,3 km/h (1 Bft)
10.02.2017 04:00 -2,3 C 88 % 1019,7 hPa 0,0 l/m 0,9 km/h (0 Bft) W -4,0 C -2,3 C 3,5 km/h (1 Bft)
10.02.2017 05:00 -2,3 C 88 % 1019,6 hPa 0,0 l/m 0,2 km/h (0 Bft) W-NW -4,0 C -2,3 C 1,6 km/h (1 Bft)
10.02.2017 06:00 -2,3 C 88 % 1019,5 hPa 0,0 l/m 0,2 km/h (0 Bft) W -4,0 C -2,3 C 1,1 km/h (1 Bft)
10.02.2017 07:00 -2,3 C 88 % 1019,7 hPa 0,0 l/m 0,3 km/h (0 Bft) W -3,9 C -2,3 C 2,0 km/h (1 Bft)
10.02.2017 08:00 -2,2 C 89 % 1020,2 hPa 0,0 l/m 0,5 km/h (0 Bft) W-NW -3,7 C -2,2 C 2,3 km/h (1 Bft)
10.02.2017 09:00 -1,4 C 87 % 1020,4 hPa 0,0 l/m 0,6 km/h (0 Bft) W-NW -3,3 C -1,4 C 2,4 km/h (1 Bft)
10.02.2017 10:00 -0,8 C 86 % 1020,4 hPa 0,0 l/m 1,2 km/h (1 Bft) NO -2,9 C -0,8 C 3,7 km/h (1 Bft)
10.02.2017 11:00 -0,0 C 85 % 1020,5 hPa 0,0 l/m 2,0 km/h (1 Bft) NO -2,2 C -0,0 C 4,7 km/h (1 Bft)
10.02.2017 12:00 0,8 C 84 % 1020,5 hPa 0,0 l/m 2,3 km/h (1 Bft) NO -1,7 C 0,8 C 5,0 km/h (1 Bft)
10.02.2017 13:00 0,9 C 86 % 1020,4 hPa 0,0 l/m 1,5 km/h (1 Bft) O-NO -1,2 C 0,9 C 4,1 km/h (1 Bft)
10.02.2017 14:00 0,8 C 89 % 1020,4 hPa 0,0 l/m 1,0 km/h (0 Bft) N -0,8 C 0,8 C 3,6 km/h (1 Bft)
10.02.2017 15:00 0,8 C 92 % 1020,2 hPa 0,5 l/m 1,0 km/h (0 Bft) W-NW -0,3 C 0,8 C 3,5 km/h (1 Bft)
10.02.2017 16:00 1,0 C 92 % 1019,9 hPa 0,0 l/m 1,0 km/h (0 Bft) W-NW -0,2 C 1,0 C 3,6 km/h (1 Bft)
10.02.2017 17:00 0,4 C 92 % 1020,0 hPa 0,0 l/m 0,1 km/h (0 Bft) W-NW -0,7 C 0,4 C 0,5 km/h (0 Bft)
10.02.2017 18:00 -0,4 C 93 % 1020,3 hPa 0,0 l/m 0,0 km/h (0 Bft) W-NW -1,4 C -0,4 C 0,0 km/h (0 Bft)
10.02.2017 19:00 -1,4 C 95 % 1020,5 hPa 0,0 l/m 0,1 km/h (0 Bft) W-NW -2,1 C -1,4 C 0,8 km/h (0 Bft)
10.02.2017 20:00 -1,6 C 96 % 1020,4 hPa 0,0 l/m 0,3 km/h (0 Bft) W-NW -2,2 C -1,6 C 1,5 km/h (1 Bft)
10.02.2017 21:00 -1,6 C 96 % 1020,5 hPa 0,0 l/m 0,5 km/h (0 Bft) NO -2,1 C -1,6 C 2,0 km/h (1 Bft)
10.02.2017 22:00 -2,0 C 96 % 1020,4 hPa 0,0 l/m 0,2 km/h (0 Bft) NO -2,5 C -2,0 C 1,5 km/h (1 Bft)
10.02.2017 23:00 -2,6 C 96 % 1020,4 hPa 0,0 l/m 0,1 km/h (0 Bft) NO -3,2 C -2,6 C 0,8 km/h (0 Bft)
11.02.2017 00:00 -3,0 C 96 % 1020,5 hPa 0,0 l/m 0,1 km/h (0 Bft) NO -3,5 C -3,0 C 0,6 km/h (0 Bft)
11.02.2017 01:00 -3,5 C 96 % 1020,4 hPa 0,0 l/m 0,1 km/h (0 Bft) NO -4,1 C -3,5 C 0,5 km/h (0 Bft)
11.02.2017 02:00 -4,1 C 96 % 1020,5 hPa 0,0 l/m 0,4 km/h (0 Bft) NO -4,7 C -4,1 C 2,0 km/h (1 Bft)
11.02.2017 03:00 -4,3 C 96 % 1020,4 hPa 0,0 l/m 0,2 km/h (0 Bft) NO -4,8 C -4,3 C 1,1 km/h (0 Bft)
11.02.2017 04:00 -4,6 C 96 % 1020,5 hPa 0,0 l/m 0,2 km/h (0 Bft) NO -5,2 C -4,6 C 1,6 km/h (1 Bft)
11.02.2017 05:00 -3,3 C 97 % 1020,3 hPa 0,0 l/m 1,5 km/h (1 Bft) NO -3,7 C -3,3 C 3,8 km/h (1 Bft)
11.02.2017 06:00 -1,5 C 97 % 1020,2 hPa 0,0 l/m 2,3 km/h (1 Bft) NO -2,0 C -1,5 C 6,2 km/h (2 Bft)
11.02.2017 07:00 -1,1 C 95 % 1020,2 hPa 0,0 l/m 1,4 km/h (1 Bft) O-SO -1,8 C -1,1 C 4,3 km/h (1 Bft)
11.02.2017 08:00 -0,8 C 94 % 1020,6 hPa 0,0 l/m 1,1 km/h (1 Bft) W-NW -1,7 C -0,8 C 4,1 km/h (1 Bft)
11.02.2017 09:00 -0,5 C 95 % 1020,6 hPa 0,0 l/m 0,1 km/h (0 Bft) W-NW -1,2 C -0,5 C 0,9 km/h (0 Bft)
11.02.2017 10:00 0,1 C 95 % 1020,5 hPa 0,3 l/m 0,5 km/h (0 Bft) O-NO -0,6 C 0,1 C 2,4 km/h (1 Bft)
11.02.2017 11:00 2,4 C 90 % 1020,4 hPa 0,0 l/m 1,5 km/h (1 Bft) N-NO 0,9 C 2,4 C 4,6 km/h (1 Bft)
11.02.2017 12:00 4,8 C 82 % 1020,1 hPa 0,0 l/m 1,8 km/h (1 Bft) NO 2,0 C 4,8 C 3,9 km/h (1 Bft)
11.02.2017 13:00 7,5 C 63 % 1019,6 hPa 0,0 l/m 4,0 km/h (1 Bft) NO 1,0 C 7,5 C 9,8 km/h (2 Bft)
11.02.2017 14:00 8,1 C 56 % 1019,0 hPa 0,0 l/m 5,0 km/h (1 Bft) N-NO -0,1 C 8,1 C 13,3 km/h (3 Bft)
11.02.2017 15:00 7,3 C 60 % 1018,6 hPa 0,0 l/m 2,8 km/h (1 Bft) O-NO 0,1 C 7,3 C 7,9 km/h (2 Bft)
11.02.2017 16:00 6,5 C 66 % 1018,3 hPa 0,0 l/m 2,3 km/h (1 Bft) NO 0,5 C 6,5 C 5,3 km/h (1 Bft)
11.02.2017 17:00 4,8 C 73 % 1019,2 hPa 0,0 l/m 1,8 km/h (1 Bft) O-NO 0,3 C 4,8 C 3,9 km/h (1 Bft)
11.02.2017 18:00 3,5 C 79 % 1019,3 hPa 0,0 l/m 0,2 km/h (0 Bft) O-NO 0,3 C 3,5 C 1,6 km/h (1 Bft)
11.02.2017 19:00 1,8 C 85 % 1019,3 hPa 0,0 l/m 0,5 km/h (0 Bft) O-NO -0,5 C 1,8 C 2,1 km/h (1 Bft)
11.02.2017 20:00 1,0 C 87 % 1019,7 hPa 0,0 l/m 1,1 km/h (1 Bft) O-NO -0,8 C 1,0 C 3,3 km/h (1 Bft)
11.02.2017 21:00 1,1 C 88 % 1020,1 hPa 0,0 l/m 0,5 km/h (0 Bft) SW -0,6 C 1,1 C 2,1 km/h (1 Bft)
11.02.2017 22:00 0,8 C 89 % 1020,2 hPa 0,0 l/m 0,4 km/h (0 Bft) SW -0,8 C 0,8 C 1,6 km/h (1 Bft)
11.02.2017 23:00 -0,1 C 91 % 1020,0 hPa 0,0 l/m 0,2 km/h (0 Bft) SW -1,4 C -0,1 C 1,7 km/h (1 Bft)
12.02.2017 00:00 -0,8 C 92 % 1020,2 hPa 0,0 l/m 0,1 km/h (0 Bft) SW -1,9 C -0,8 C 0,9 km/h (0 Bft)
12.02.2017 01:00 -0,3 C 93 % 1020,7 hPa 0,0 l/m 1,2 km/h (1 Bft) W-NW -1,3 C -0,3 C 3,7 km/h (1 Bft)
12.02.2017 02:00 0,2 C 93 % 1020,8 hPa 0,0 l/m 0,7 km/h (0 Bft) SW -0,8 C 0,2 C 2,3 km/h (1 Bft)
12.02.2017 03:00 0,0 C 94 % 1021,2 hPa 0,0 l/m 0,5 km/h (0 Bft) W -0,9 C 0,0 C 2,1 km/h (1 Bft)
12.02.2017 04:00 -0,1 C 94 % 1021,6 hPa 0,0 l/m 0,8 km/h (0 Bft) W -0,9 C -0,1 C 3,2 km/h (1 Bft)
12.02.2017 05:00 -0,2 C 94 % 1022,3 hPa 0,0 l/m 0,3 km/h (0 Bft) SW -1,1 C -0,2 C 1,3 km/h (1 Bft)
12.02.2017 06:00 -0,4 C 95 % 1022,4 hPa 0,0 l/m 0,1 km/h (0 Bft) SW -1,1 C -0,4 C 1,0 km/h (0 Bft)
12.02.2017 07:00 -0,4 C 95 % 1022,9 hPa 0,0 l/m 0,2 km/h (0 Bft) SW -1,1 C -0,4 C 1,2 km/h (1 Bft)
12.02.2017 08:00 -0,0 C 95 % 1023,8 hPa 0,0 l/m 0,9 km/h (0 Bft) SW -0,8 C -0,0 C 3,5 km/h (1 Bft)
12.02.2017 09:00 1,8 C 89 % 1024,5 hPa 0,0 l/m 1,4 km/h (1 Bft) W 0,2 C 1,8 C 4,1 km/h (1 Bft)
12.02.2017 10:00 3,4 C 82 % 1024,6 hPa 0,0 l/m 3,0 km/h (1 Bft) NW 0,7 C 3,4 C 6,7 km/h (2 Bft)
12.02.2017 11:00 4,5 C 77 % 1024,7 hPa 0,0 l/m 3,2 km/h (1 Bft) W-NW 0,8 C 4,5 C 7,4 km/h (2 Bft)
12.02.2017 12:00 5,8 C 72 % 1024,6 hPa 0,0 l/m 2,6 km/h (1 Bft) NW 1,0 C 5,8 C 6,7 km/h (2 Bft)
12.02.2017 13:00 6,8 C 66 % 1024,3 hPa 0,0 l/m 4,1 km/h (1 Bft) W 0,9 C 6,8 C 11,3 km/h (2 Bft)
12.02.2017 14:00 6,9 C 65 % 1024,1 hPa 0,0 l/m 4,6 km/h (1 Bft) S-SW 0,8 C 6,9 C 12,0 km/h (2 Bft)
12.02.2017 15:00 6,9 C 64 % 1024,3 hPa 0,3 l/m 4,8 km/h (1 Bft) W-NW 0,7 C 6,9 C 12,0 km/h (2 Bft)
12.02.2017 16:00 6,2 C 68 % 1024,8 hPa 0,0 l/m 3,8 km/h (1 Bft) W-NW 0,8 C 6,2 C 11,0 km/h (2 Bft)
12.02.2017 17:00 3,9 C 77 % 1025,4 hPa 0,0 l/m 2,8 km/h (1 Bft) SW 0,3 C 3,9 C 7,8 km/h (2 Bft)
12.02.2017 18:00 2,7 C 81 % 1025,7 hPa 0,0 l/m 3,1 km/h (1 Bft) SW -0,3 C 2,7 C 8,2 km/h (2 Bft)
12.02.2017 19:00 1,2 C 85 % 1026,0 hPa 0,0 l/m 2,9 km/h (1 Bft) SW -1,1 C 1,2 C 8,3 km/h (2 Bft)
12.02.2017 20:00 0,1 C 88 % 1026,1 hPa 0,0 l/m 2,7 km/h (1 Bft) SW -1,7 C 0,1 C 9,1 km/h (2 Bft)
12.02.2017 21:00 -0,8 C 90 % 1026,4 hPa 0,0 l/m 2,0 km/h (1 Bft) S-SW -2,2 C -0,8 C 6,9 km/h (2 Bft)
12.02.2017 22:00 -1,4 C 92 % 1026,6 hPa 0,0 l/m 2,3 km/h (1 Bft) S-SW -2,5 C -1,4 C 7,0 km/h (2 Bft)
12.02.2017 23:00 -1,4 C 93 % 1026,9 hPa 0,0 l/m 2,9 km/h (1 Bft) S-SW -2,5 C -1,4 C 8,2 km/h (2 Bft)
Min-Datum _ 11.02.17 11.02.17 06.02.17 - 12.02.17 - 11.02.17 11.02.17 12.02.17
_ Min-Zeit 04:15 14:35 00:00 - 18:04 - 04:15 04:15 08:10
Minimum _ -4,7 C 53 % 1006,2 hPa - 0,0 km/h (0 Bft) - -5,4 C -4,7 C 0,0 km/h (0 Bft)
Max-Datum _ 11.02.17 11.02.17 12.02.17 06.02.17 11.02.17 - 06.02.17 11.02.17 09.02.17
_ Max-Zeit 14:10 06:00 23:30 10:15 14:25 - 11:56 14:10 10:50
Maximum _ 8,4 C 98 % 1027,1 hPa 2,5 l/m 6,9 km/h
N-NO (2 Bft)
- 4,1 C 8,4 C 22,5 km/h
S (4 Bft)
Durchschnitt _ 0,6 C 90 % 1020,0 hPa #7,1 l/m 1,2 km/h (1 Bft) W-NW -1,0 C 0,6 C 3,7 km/h (1 Bft)